Time;durP1;ratioP1;P1;durP2;ratioP2;P2;SDS_P1;SDS_P2;PMS_P1;PMS_P2;Temp;Humidity;BMP_temperature;BMP_pressure;BME280_temperature;BME280_humidity;BME280_pressure;Samples;Min_cycle;Max_cycle;Signal;HPM_P1;HPM_P2
2023/03/21 00:00:24;;;;;;;8.82;4.88;;;11.40;86.30;;;;;;5084733;28;20024;-67
2023/03/21 00:02:50;;;;;;;12.80;5.82;;;11.40;86.30;;;;;;5084002;28;20386;-67
2023/03/21 00:05:16;;;;;;;7.15;4.68;;;11.40;86.20;;;;;;5086414;28;20469;-68
2023/03/21 00:07:42;;;;;;;9.52;5.80;;;11.40;86.20;;;;;;5085811;28;20020;-68
2023/03/21 00:10:08;;;;;;;10.13;5.75;;;11.30;86.40;;;;;;5083464;28;20023;-68
2023/03/21 00:12:36;;;;;;;10.98;5.40;;;11.30;86.50;;;;;;5086935;28;20486;-68
2023/03/21 00:15:06;;;;;;;7.65;4.95;;;11.30;86.50;;;;;;5084769;28;20112;-69
2023/03/21 00:17:33;;;;;;;12.32;6.20;;;11.30;86.40;;;;;;5082077;28;20119;-69
2023/03/21 00:19:59;;;;;;;9.65;5.30;;;11.30;86.50;;;;;;5083992;28;20030;-69
2023/03/21 00:22:26;;;;;;;10.00;5.38;;;11.30;86.60;;;;;;5084883;28;20097;-68
2023/03/21 00:24:53;;;;;;;8.85;5.20;;;11.30;87.20;;;;;;5083707;28;20031;-70
2023/03/21 00:27:18;;;;;;;10.82;6.10;;;11.20;86.60;;;;;;5086036;28;20028;-70
2023/03/21 00:29:45;;;;;;;11.43;6.68;;;11.20;86.80;;;;;;5082105;28;20036;-70
2023/03/21 00:32:11;;;;;;;9.63;6.47;;;11.20;87.10;;;;;;5077642;28;20460;-70
2023/03/21 00:34:37;;;;;;;10.27;6.32;;;11.10;87.10;;;;;;5082912;28;20020;-69
2023/03/21 00:37:06;;;;;;;9.52;5.57;;;11.10;87.20;;;;;;5082517;28;20411;-68
2023/03/21 00:39:31;;;;;;;9.90;5.93;;;11.10;87.20;;;;;;5084160;28;20029;-69
2023/03/21 00:41:57;;;;;;;9.98;6.22;;;11.10;87.20;;;;;;5085983;28;20088;-69
2023/03/21 00:44:24;;;;;;;13.27;7.03;;;11.10;87.20;;;;;;5083364;28;20486;-68
2023/03/21 00:46:50;;;;;;;14.20;8.07;;;11.10;87.40;;;;;;5091564;28;20023;-66
2023/03/21 00:49:16;;;;;;;12.23;7.35;;;11.10;87.50;;;;;;5087879;28;20036;-69
2023/03/21 00:51:42;;;;;;;13.32;7.28;;;11.10;87.60;;;;;;5090171;28;20031;-69
2023/03/21 00:54:11;;;;;;;9.52;6.13;;;11.10;87.70;;;;;;5079366;28;20027;-69
2023/03/21 00:56:36;;;;;;;13.05;7.30;;;11.10;87.80;;;;;;5077977;28;20021;-69
2023/03/21 00:59:02;;;;;;;14.20;6.38;;;11.10;88.00;;;;;;5079346;28;20036;-69
2023/03/21 01:01:30;;;;;;;8.80;5.88;;;11.00;88.00;;;;;;5081829;28;20592;-69
2023/03/21 01:04:01;;;;;;;9.38;5.85;;;11.00;88.00;;;;;;5083119;28;20017;-68
2023/03/21 01:06:27;;;;;;;8.43;5.15;;;11.10;88.00;;;;;;5092185;28;20394;-68
2023/03/21 01:08:53;;;;;;;8.75;5.57;;;11.10;87.90;;;;;;5083931;28;20024;-67
2023/03/21 01:11:21;;;;;;;8.90;4.85;;;11.10;87.80;;;;;;5085886;28;20141;-66
2023/03/21 01:13:47;;;;;;;9.73;5.45;;;11.20;87.70;;;;;;5079578;28;20033;-68
2023/03/21 01:16:13;;;;;;;9.18;5.50;;;11.20;87.70;;;;;;5090149;28;20043;-67
2023/03/21 01:18:40;;;;;;;9.13;5.30;;;11.20;87.70;;;;;;5087051;28;20023;-68
2023/03/21 01:21:10;;;;;;;9.35;6.00;;;11.20;87.70;;;;;;5083213;28;20035;-66
2023/03/21 01:23:35;;;;;;;9.15;5.32;;;11.20;87.60;;;;;;5079497;28;20032;-66
2023/03/21 01:26:01;;;;;;;11.10;7.00;;;11.20;87.60;;;;;;5075733;28;20058;-67
2023/03/21 01:28:28;;;;;;;11.93;6.13;;;11.10;87.80;;;;;;5090282;28;20032;-68
2023/03/21 01:30:54;;;;;;;10.43;6.40;;;11.10;87.90;;;;;;5082634;28;20634;-68
2023/03/21 01:33:21;;;;;;;10.20;6.68;;;11.00;88.10;;;;;;5077879;28;20028;-69
2023/03/21 01:35:46;;;;;;;9.75;6.32;;;11.00;88.20;;;;;;5085377;28;20027;-68
2023/03/21 01:38:12;;;;;;;10.77;6.55;;;11.00;88.20;;;;;;5084632;28;20020;-67
2023/03/21 01:40:39;;;;;;;9.82;5.45;;;11.00;88.10;;;;;;5082236;28;20505;-68
2023/03/21 01:43:20;;;;;;;7.13;4.82;;;11.10;88.10;;;;;;5086792;28;20108;-68
2023/03/21 01:46:21;;;;;;;9.00;5.35;;;11.10;88.00;;;;;;5084526;28;20050;-66
2023/03/21 01:49:01;;;;;;;9.02;5.70;;;11.10;87.90;;;;;;5085377;28;20027;-67
2023/03/21 01:51:27;;;;;;;12.05;6.28;;;11.10;87.90;;;;;;5085008;28;20024;-68
2023/03/21 01:53:54;;;;;;;12.63;7.97;;;11.10;87.90;;;;;;5087226;28;20016;-68
2023/03/21 01:56:33;;;;;;;11.43;6.70;;;11.00;88.30;;;;;;5087459;28;20047;-67
2023/03/21 01:59:09;;;;;;;9.23;6.45;;;11.00;88.30;;;;;;5071735;28;20103;-67
2023/03/21 02:01:37;;;;;;;8.68;6.10;;;11.00;88.40;;;;;;5085704;28;20031;-67
2023/03/21 02:04:03;;;;;;;8.52;5.75;;;11.00;88.50;;;;;;5080345;28;20037;-67
2023/03/21 02:06:45;;;;;;;12.35;6.75;;;11.00;88.70;;;;;;5082904;28;20640;-67
2023/03/21 02:09:15;;;;;;;13.68;7.00;;;10.90;88.70;;;;;;5076035;28;20495;-67
2023/03/21 02:11:45;;;;;;;10.32;5.85;;;10.90;88.90;;;;;;5091082;28;20030;-68
2023/03/21 02:14:14;;;;;;;8.77;5.28;;;10.90;89.00;;;;;;5080131;28;20411;-67
2023/03/21 02:16:48;;;;;;;8.15;4.65;;;10.90;88.90;;;;;;5077210;28;20024;-67
2023/03/21 02:19:23;;;;;;;9.05;5.03;;;10.90;88.70;;;;;;5082390;28;20036;-68
2023/03/21 02:22:04;;;;;;;8.18;4.95;;;10.90;88.70;;;;;;5082189;28;20028;-67
2023/03/21 02:24:46;;;;;;;8.38;4.72;;;10.90;88.80;;;;;;5079711;28;20035;-68
2023/03/21 02:27:17;;;;;;;8.70;5.22;;;10.90;88.80;;;;;;5080291;28;20067;-67
2023/03/21 02:30:13;;;;;;;10.77;5.40;;;10.90;88.90;;;;;;5076892;28;20039;-68
2023/03/21 02:33:00;;;;;;;9.10;5.72;;;10.90;88.80;;;;;;5073591;28;20031;-68
2023/03/21 02:35:49;;;;;;;8.38;5.47;;;10.90;88.80;;;;;;5084151;28;20024;-67
2023/03/21 02:38:22;;;;;;;8.52;5.43;;;10.90;88.80;;;;;;5085231;28;20025;-68
2023/03/21 02:41:16;;;;;;;9.10;5.05;;;10.90;88.70;;;;;;5074025;28;20556;-67
2023/03/21 02:43:47;;;;;;;8.85;4.90;;;10.90;88.60;;;;;;5077608;28;20382;-67
2023/03/21 02:46:19;;;;;;;13.50;7.65;;;10.90;88.60;;;;;;5072864;28;20559;-68
2023/03/21 02:49:07;;;;;;;12.07;6.85;;;10.90;89.10;;;;;;5081455;28;20024;-67
2023/03/21 02:51:36;;;;;;;9.85;5.72;;;10.90;89.10;;;;;;5082634;28;20016;-66
2023/03/21 02:54:06;;;;;;;10.82;6.30;;;10.90;89.10;;;;;;5082615;28;20103;-69
2023/03/21 02:56:33;;;;;;;9.05;5.90;;;10.90;89.10;;;;;;5077739;28;20742;-68
2023/03/21 02:58:59;;;;;;;10.50;5.88;;;10.90;89.10;;;;;;5089977;28;20023;-67
2023/03/21 03:01:25;;;;;;;10.52;5.70;;;10.90;89.00;;;;;;5078713;28;20551;-67
2023/03/21 03:03:51;;;;;;;11.18;6.40;;;10.90;88.90;;;;;;5076750;28;20028;-66
2023/03/21 03:06:21;;;;;;;9.15;5.28;;;10.90;89.00;;;;;;5080178;28;20031;-69
2023/03/21 03:09:11;;;;;;;8.20;5.15;;;11.00;89.00;;;;;;5079280;28;20035;-69
2023/03/21 03:11:42;;;;;;;8.98;5.03;;;11.00;88.90;;;;;;5080119;28;20032;-67
2023/03/21 03:14:32;;;;;;;8.50;5.18;;;11.00;88.90;;;;;;5082079;28;20032;-66
2023/03/21 03:17:36;;;;;;;9.88;5.45;;;11.00;88.90;;;;;;5079059;28;20016;-66
2023/03/21 03:20:35;;;;;;;8.93;4.75;;;11.00;88.90;;;;;;5076739;28;20032;-66
2023/03/21 03:23:17;;;;;;;9.60;5.10;;;11.00;88.80;;;;;;5083499;28;20028;-67
2023/03/21 03:25:50;;;;;;;6.57;4.63;;;11.00;88.80;;;;;;5073920;28;20040;-67
2023/03/21 03:28:22;;;;;;;8.18;5.35;;;11.00;88.80;;;;;;5083498;28;20067;-67
2023/03/21 03:30:50;;;;;;;8.77;5.30;;;11.00;88.70;;;;;;5078688;28;20032;-67
2023/03/21 03:33:22;;;;;;;7.57;4.90;;;11.00;88.70;;;;;;5079886;28;20027;-68
2023/03/21 03:35:48;;;;;;;8.27;4.65;;;11.00;88.80;;;;;;5084430;28;20020;-67
2023/03/21 03:38:14;;;;;;;8.43;5.32;;;11.00;88.80;;;;;;5073691;28;20543;-66
2023/03/21 03:40:45;;;;;;;8.25;5.45;;;10.90;88.80;;;;;;5081960;28;20024;-66
2023/03/21 03:43:16;;;;;;;9.50;5.78;;;10.90;89.00;;;;;;5081539;28;20024;-66
2023/03/21 03:45:48;;;;;;;9.55;5.30;;;10.90;89.10;;;;;;5076188;28;20037;-67
2023/03/21 03:48:45;;;;;;;10.35;6.18;;;10.90;89.10;;;;;;5088240;28;20020;-67
2023/03/21 03:51:18;;;;;;;12.20;6.45;;;10.90;89.80;;;;;;5077286;28;20037;-65
2023/03/21 03:53:57;;;;;;;11.95;6.72;;;10.90;89.20;;;;;;5081099;28;20128;-65
2023/03/21 03:56:24;;;;;;;11.05;6.72;;;10.90;89.30;;;;;;5081831;28;20466;-67
2023/03/21 03:58:50;;;;;;;10.30;5.70;;;10.90;89.40;;;;;;5076506;28;20451;-66
2023/03/21 04:01:16;;;;;;;9.18;5.22;;;10.90;89.30;;;;;;5081786;28;20034;-66
2023/03/21 04:03:44;;;;;;;9.30;5.00;;;10.90;89.20;;;;;;5084324;28;20020;-66
2023/03/21 04:06:09;;;;;;;8.90;4.88;;;10.90;89.10;;;;;;5084525;28;20024;-66
2023/03/21 04:08:36;;;;;;;9.75;6.13;;;10.90;89.00;;;;;;5083932;28;20031;-67
2023/03/21 04:11:02;;;;;;;11.13;6.03;;;10.90;89.20;;;;;;5080140;28;20023;-67
2023/03/21 04:13:27;;;;;;;8.15;4.88;;;10.90;89.30;;;;;;5077960;28;20086;-66
2023/03/21 04:15:53;;;;;;;8.85;5.45;;;10.90;89.20;;;;;;5070696;28;20487;-65
2023/03/21 04:18:21;;;;;;;11.05;5.97;;;10.90;89.30;;;;;;5076266;28;20170;-68
2023/03/21 04:20:48;;;;;;;11.52;5.68;;;10.90;89.40;;;;;;5083512;28;20050;-66
2023/03/21 04:23:13;;;;;;;10.75;5.63;;;10.80;89.50;;;;;;5083572;28;20532;-65
2023/03/21 04:25:39;;;;;;;9.93;5.20;;;10.80;89.60;;;;;;5089740;28;20036;-66
2023/03/21 04:28:05;;;;;;;10.20;4.82;;;10.80;89.50;;;;;;5094790;28;20050;-66
2023/03/21 04:30:33;;;;;;;8.00;4.88;;;10.90;89.50;;;;;;5079516;28;20366;-66
2023/03/21 04:33:00;;;;;;;11.20;5.88;;;10.80;89.50;;;;;;5082969;28;20047;-67
2023/03/21 04:35:27;;;;;;;9.73;5.22;;;10.80;89.70;;;;;;5084289;28;20093;-67
2023/03/21 04:37:52;;;;;;;11.13;5.60;;;10.80;89.70;;;;;;5075059;28;20063;-67
2023/03/21 04:40:18;;;;;;;12.32;5.57;;;10.80;89.80;;;;;;5078339;28;20044;-66
2023/03/21 04:42:45;;;;;;;9.40;5.40;;;10.80;89.80;;;;;;5079996;28;20032;-66
2023/03/21 04:45:11;;;;;;;8.82;5.20;;;10.80;89.80;;;;;;5083259;28;20367;-66
2023/03/21 04:47:37;;;;;;;10.90;5.18;;;10.80;89.80;;;;;;5075788;28;20582;-67
2023/03/21 04:50:03;;;;;;;8.30;4.82;;;10.80;90.10;;;;;;5077492;28;20028;-66
2023/03/21 04:52:29;;;;;;;8.45;4.68;;;10.80;89.80;;;;;;5090353;28;20032;-66
2023/03/21 04:54:55;;;;;;;8.27;4.35;;;10.80;89.70;;;;;;5075966;28;20024;-66
2023/03/21 04:57:20;;;;;;;7.10;3.90;;;10.80;89.70;;;;;;5084692;28;20650;-66
2023/03/21 04:59:46;;;;;;;8.10;3.92;;;10.90;89.60;;;;;;5077662;28;20032;-67
2023/03/21 05:02:12;;;;;;;6.88;3.80;;;10.90;89.50;;;;;;5084032;28;20028;-65
2023/03/21 05:04:38;;;;;;;7.80;4.57;;;10.90;89.50;;;;;;5084121;28;20024;-66
2023/03/21 05:07:04;;;;;;;11.30;5.38;;;10.90;89.50;;;;;;5090914;28;20038;-66
2023/03/21 05:09:29;;;;;;;11.70;5.53;;;10.80;89.60;;;;;;5085164;28;20028;-65
2023/03/21 05:11:55;;;;;;;10.85;5.43;;;10.80;89.80;;;;;;5081220;28;20029;-65
2023/03/21 05:14:23;;;;;;;10.40;5.38;;;10.70;90.00;;;;;;5089860;28;20020;-65
2023/03/21 05:16:54;;;;;;;10.90;5.30;;;10.70;90.10;;;;;;5077247;28;20028;-65
2023/03/21 05:19:22;;;;;;;9.93;3.97;;;10.70;90.10;;;;;;5078739;28;20411;-66
2023/03/21 05:21:48;;;;;;;7.95;3.80;;;10.80;90.10;;;;;;5082532;28;20432;-67
2023/03/21 05:24:18;;;;;;;11.15;4.90;;;10.80;90.00;;;;;;5092098;28;20020;-65
2023/03/21 05:26:49;;;;;;;9.05;4.55;;;10.80;89.90;;;;;;5080159;28;20036;-66
2023/03/21 05:29:15;;;;;;;8.48;4.07;;;10.80;90.00;;;;;;5090660;28;20103;-66
2023/03/21 05:31:44;;;;;;;10.00;4.97;;;10.80;89.80;;;;;;5089725;28;20031;-68
2023/03/21 05:34:12;;;;;;;9.70;4.60;;;10.80;89.90;;;;;;5089085;28;20028;-66
2023/03/21 05:36:38;;;;;;;10.00;5.07;;;10.80;89.80;;;;;;5085338;28;20568;-67
2023/03/21 05:39:04;;;;;;;8.77;4.80;;;10.80;89.90;;;;;;5087321;28;20016;-66
2023/03/21 05:41:30;;;;;;;11.27;4.78;;;10.80;89.90;;;;;;5085408;28;20103;-66
2023/03/21 05:43:56;;;;;;;7.45;4.10;;;10.70;90.00;;;;;;5085872;28;20633;-67
2023/03/21 05:46:21;;;;;;;8.23;4.53;;;10.80;90.00;;;;;;5085031;28;20390;-67
2023/03/21 05:48:49;;;;;;;9.15;4.03;;;10.80;89.80;;;;;;5088252;28;20118;-68
2023/03/21 05:51:16;;;;;;;8.25;3.90;;;10.80;89.80;;;;;;5084339;28;21482;-68
2023/03/21 05:53:42;;;;;;;8.20;4.25;;;10.80;89.60;;;;;;5087312;28;20032;-68
2023/03/21 05:56:08;;;;;;;9.15;4.00;;;10.80;89.60;;;;;;5086580;28;20016;-68
2023/03/21 05:58:33;;;;;;;7.10;3.55;;;10.80;89.50;;;;;;5091393;28;20055;-68
2023/03/21 06:00:59;;;;;;;5.35;3.20;;;10.80;89.40;;;;;;5080322;28;20064;-69
2023/03/21 06:03:25;;;;;;;10.18;5.05;;;10.90;89.40;;;;;;5077331;28;20024;-68
2023/03/21 06:05:50;;;;;;;14.27;4.90;;;10.80;89.40;;;;;;5086051;28;21740;-68
2023/03/21 06:08:16;;;;;;;8.88;4.40;;;10.80;89.60;;;;;;5082762;28;20024;-68
2023/03/21 06:10:42;;;;;;;7.88;3.85;;;10.80;89.50;;;;;;5083221;28;20115;-67
2023/03/21 06:13:07;;;;;;;11.13;5.15;;;10.80;89.40;;;;;;5081663;28;20367;-68
2023/03/21 06:15:33;;;;;;;8.38;4.35;;;10.80;89.40;;;;;;5086684;28;20028;-68
2023/03/21 06:17:58;;;;;;;6.93;3.92;;;10.90;89.50;;;;;;5086382;28;20016;-68
2023/03/21 06:20:24;;;;;;;5.63;3.30;;;10.90;89.40;;;;;;5086755;28;20078;-67
2023/03/21 06:22:49;;;;;;;7.05;3.50;;;10.90;89.30;;;;;;5084011;28;20394;-67
2023/03/21 06:25:15;;;;;;;6.18;3.55;;;10.90;89.20;;;;;;5088791;28;20032;-67
2023/03/21 06:27:41;;;;;;;8.98;4.18;;;11.00;89.10;;;;;;5085314;28;20024;-67
2023/03/21 06:30:07;;;;;;;10.15;4.85;;;11.00;89.10;;;;;;5084626;28;20522;-67
2023/03/21 06:32:33;;;;;;;7.97;3.90;;;10.90;89.20;;;;;;5077859;28;20059;-67
2023/03/21 06:35:00;;;;;;;8.32;4.45;;;10.90;89.20;;;;;;5087560;28;20159;-69
2023/03/21 06:37:25;;;;;;;9.27;4.93;;;10.90;89.10;;;;;;5088714;28;20103;-67
2023/03/21 06:39:51;;;;;;;9.13;4.10;;;10.90;89.20;;;;;;5081515;28;20069;-68
2023/03/21 06:42:17;;;;;;;9.63;4.47;;;11.00;89.20;;;;;;5086040;28;20421;-67
2023/03/21 06:44:42;;;;;;;9.23;3.95;;;11.00;89.10;;;;;;5086458;28;20028;-68
2023/03/21 06:47:08;;;;;;;7.13;4.45;;;11.00;89.00;;;;;;5088586;28;20069;-67
2023/03/21 06:49:34;;;;;;;9.02;4.15;;;11.00;89.00;;;;;;5087586;28;20028;-68
2023/03/21 06:51:59;;;;;;;6.93;4.10;;;11.00;89.00;;;;;;5091945;28;20035;-67
2023/03/21 06:54:25;;;;;;;8.48;4.40;;;11.00;89.00;;;;;;5088031;28;20031;-68
2023/03/21 06:56:50;;;;;;;9.30;4.20;;;11.00;88.90;;;;;;5086338;28;20034;-67
2023/03/21 06:59:16;;;;;;;8.95;3.97;;;11.00;88.80;;;;;;5085388;28;20044;-67
2023/03/21 07:01:41;;;;;;;5.97;2.90;;;11.10;88.80;;;;;;5086525;28;20028;-68
2023/03/21 07:04:08;;;;;;;6.53;3.70;;;11.10;88.70;;;;;;5086522;28;20043;-68
2023/03/21 07:06:34;;;;;;;6.50;3.50;;;11.10;88.60;;;;;;5086205;28;20100;-67
2023/03/21 07:09:01;;;;;;;7.47;4.00;;;11.20;88.50;;;;;;5086697;28;20028;-67
2023/03/21 07:11:27;;;;;;;7.05;3.85;;;11.20;88.50;;;;;;5083617;28;20020;-66
2023/03/21 07:13:53;;;;;;;7.28;3.58;;;11.20;88.40;;;;;;5091687;28;20027;-68
2023/03/21 07:16:20;;;;;;;7.78;3.83;;;11.20;88.30;;;;;;5092122;28;20020;-67
2023/03/21 07:18:46;;;;;;;9.45;4.20;;;11.30;88.20;;;;;;5089864;28;20128;-66
2023/03/21 07:21:11;;;;;;;8.95;4.03;;;11.30;88.20;;;;;;5085621;28;20107;-68
2023/03/21 07:23:37;;;;;;;9.07;4.72;;;11.30;88.20;;;;;;5086632;28;20366;-68
2023/03/21 07:26:03;;;;;;;11.48;5.35;;;11.30;88.20;;;;;;5086888;28;21307;-68
2023/03/21 07:28:30;;;;;;;7.40;4.22;;;11.30;88.30;;;;;;5091827;28;20036;-68
2023/03/21 07:31:00;;;;;;;8.57;3.88;;;11.30;88.30;;;;;;5086631;28;20111;-67
2023/03/21 07:33:26;;;;;;;7.53;4.15;;;11.30;88.20;;;;;;5085537;28;20108;-67
2023/03/21 07:35:53;;;;;;;10.63;4.85;;;11.30;88.30;;;;;;5085034;28;20093;-67
2023/03/21 07:38:19;;;;;;;9.25;4.32;;;11.30;88.20;;;;;;5084343;28;20053;-70
2023/03/21 07:40:46;;;;;;;8.70;4.47;;;11.40;88.30;;;;;;5084994;28;20111;-69
2023/03/21 07:43:13;;;;;;;6.95;3.40;;;11.40;88.20;;;;;;5085301;28;20067;-68
2023/03/21 07:45:38;;;;;;;6.22;3.50;;;11.40;88.00;;;;;;5083675;28;20810;-67
2023/03/21 07:48:04;;;;;;;7.43;3.10;;;11.40;87.90;;;;;;5088577;28;20044;-67
2023/03/21 07:50:30;;;;;;;8.68;4.32;;;11.50;87.80;;;;;;5087688;28;20112;-67
2023/03/21 07:52:56;;;;;;;7.30;3.75;;;11.50;87.80;;;;;;5083806;28;20028;-68
2023/03/21 07:55:21;;;;;;;4.80;2.88;;;11.50;87.80;;;;;;5086276;28;20020;-69
2023/03/21 07:57:50;;;;;;;6.75;3.70;;;11.50;87.80;;;;;;5087458;28;20533;-68
2023/03/21 08:00:21;;;;;;;5.22;2.80;;;11.50;87.70;;;;;;5090670;28;20711;-67
2023/03/21 08:02:49;;;;;;;5.70;3.42;;;11.50;87.70;;;;;;5087241;28;20371;-67
2023/03/21 08:05:15;;;;;;;5.18;3.05;;;11.50;87.80;;;;;;5088740;28;20047;-68
2023/03/21 08:07:40;;;;;;;7.88;3.47;;;11.50;87.80;;;;;;5089989;28;20028;-68
2023/03/21 08:10:07;;;;;;;5.32;3.28;;;11.50;87.80;;;;;;5089328;28;20787;-68
2023/03/21 08:12:32;;;;;;;10.10;4.00;;;11.50;87.80;;;;;;5090474;28;20051;-69
2023/03/21 08:14:58;;;;;;;7.38;3.83;;;11.50;87.80;;;;;;5089478;28;20024;-68
2023/03/21 08:17:23;;;;;;;8.65;3.47;;;11.50;88.10;;;;;;5091647;28;20028;-68
2023/03/21 08:19:49;;;;;;;4.90;3.10;;;11.40;88.20;;;;;;5088483;28;20027;-67
2023/03/21 08:22:14;;;;;;;5.00;2.92;;;11.50;88.30;;;;;;5089746;28;20036;-68
2023/03/21 08:24:40;;;;;;;5.97;2.80;;;11.50;88.20;;;;;;5089177;28;20043;-68
2023/03/21 08:27:06;;;;;;;6.72;2.88;;;11.60;88.00;;;;;;5090193;28;20082;-67
2023/03/21 08:29:31;;;;;;;3.22;2.05;;;11.70;87.90;;;;;;5085999;28;20097;-67
2023/03/21 08:31:57;;;;;;;10.98;3.50;;;11.70;87.90;;;;;;5088575;28;20024;-67
2023/03/21 08:34:22;;;;;;;8.68;3.65;;;11.70;87.90;;;;;;5090030;28;20028;-67
2023/03/21 08:36:48;;;;;;;8.40;3.60;;;11.70;88.00;;;;;;5088643;28;20103;-67
2023/03/21 08:39:14;;;;;;;9.30;4.03;;;11.70;88.00;;;;;;5090814;28;20506;-68
2023/03/21 08:41:39;;;;;;;7.43;3.40;;;11.60;88.20;;;;;;5087136;28;20024;-67
2023/03/21 08:44:05;;;;;;;5.55;3.00;;;11.60;88.30;;;;;;5090220;28;20024;-68
2023/03/21 08:46:31;;;;;;;9.45;3.60;;;11.70;88.90;;;;;;5093878;28;20068;-68
2023/03/21 08:48:57;;;;;;;8.35;3.22;;;11.60;88.50;;;;;;5091910;28;20032;-68
2023/03/21 08:51:22;;;;;;;9.82;4.20;;;11.60;88.60;;;;;;5091845;28;20107;-67
2023/03/21 08:53:51;;;;;;;7.70;3.42;;;11.60;88.70;;;;;;5092994;28;20024;-68
2023/03/21 08:56:17;;;;;;;8.02;4.40;;;11.70;88.80;;;;;;5090356;28;20432;-68
2023/03/21 08:58:43;;;;;;;5.93;3.45;;;11.60;88.90;;;;;;5092454;28;20047;-67
2023/03/21 09:01:10;;;;;;;7.47;3.78;;;11.70;89.00;;;;;;5087057;28;20618;-68
2023/03/21 09:03:37;;;;;;;8.98;4.43;;;11.70;89.00;;;;;;5093576;28;20023;-68
2023/03/21 09:06:02;;;;;;;7.88;3.92;;;11.70;89.10;;;;;;5088034;28;20108;-67
2023/03/21 09:08:28;;;;;;;12.38;4.57;;;11.70;89.10;;;;;;5091707;28;20105;-68
2023/03/21 09:10:55;;;;;;;8.27;4.50;;;11.60;89.40;;;;;;5081653;28;20582;-67
2023/03/21 09:13:21;;;;;;;8.98;4.20;;;11.60;89.50;;;;;;5086028;28;20089;-67
2023/03/21 09:15:47;;;;;;;8.98;3.97;;;11.70;89.50;;;;;;5090821;28;20028;-67
2023/03/21 09:18:14;;;;;;;9.80;4.10;;;11.70;89.60;;;;;;5090095;28;20039;-67
2023/03/21 09:20:45;;;;;;;7.85;3.90;;;11.70;89.60;;;;;;5087010;28;20023;-66
2023/03/21 09:23:12;;;;;;;11.55;4.53;;;11.80;89.50;;;;;;5086047;28;20023;-66
2023/03/21 09:25:39;;;;;;;6.30;3.28;;;11.80;89.50;;;;;;5077988;28;20024;-68
2023/03/21 09:28:05;;;;;;;6.20;2.92;;;11.80;89.40;;;;;;5079538;28;20397;-69
2023/03/21 09:30:33;;;;;;;9.40;4.43;;;11.90;89.30;;;;;;5081410;28;20020;-69
2023/03/21 09:33:00;;;;;;;7.18;3.50;;;11.90;89.20;;;;;;5082782;28;20470;-69
2023/03/21 09:35:27;;;;;;;5.30;3.33;;;11.90;89.80;;;;;;5083274;28;20023;-66
2023/03/21 09:37:53;;;;;;;8.00;3.50;;;12.00;89.10;;;;;;5091108;28;20028;-68
2023/03/21 09:40:46;;;;;;;7.45;3.42;;;12.00;89.10;;;;;;5087748;28;20404;-67
2023/03/21 09:43:21;;;;;;;7.90;4.18;;;12.00;89.10;;;;;;5080276;28;20095;-66
2023/03/21 09:45:52;;;;;;;10.45;3.78;;;12.10;89.00;;;;;;5086056;28;20024;-66
2023/03/21 09:48:44;;;;;;;7.20;3.45;;;12.20;88.90;;;;;;5081698;28;20024;-66
2023/03/21 09:51:14;;;;;;;6.03;2.70;;;12.20;88.70;;;;;;5088909;28;20036;-68
2023/03/21 09:53:43;;;;;;;3.80;2.50;;;12.30;88.50;;;;;;5081779;28;20419;-70
2023/03/21 09:56:15;;;;;;;7.05;3.75;;;12.30;88.20;;;;;;5084260;28;20032;-68
2023/03/21 09:58:51;;;;;;;;;;;12.30;88.20;;;;;;5088845;28;20409;-68
2023/03/21 10:01:28;;;;;;;7.65;3.30;;;12.30;88.30;;;;;;5080497;28;19912;-69
2023/03/21 10:03:56;;;;;;;6.47;3.10;;;12.30;88.20;;;;;;5087059;28;20039;-68
2023/03/21 10:06:29;;;;;;;8.27;3.97;;;12.30;88.40;;;;;;5086827;28;20039;-67
2023/03/21 10:09:06;;;;;;;6.63;3.50;;;12.30;88.50;;;;;;5087113;28;20554;-67
2023/03/21 10:11:39;;;;;;;7.97;3.40;;;12.30;88.50;;;;;;5087450;28;20123;-69
2023/03/21 10:14:13;;;;;;;9.15;4.07;;;12.30;88.50;;;;;;5085123;28;20028;-67
2023/03/21 10:16:45;;;;;;;11.43;4.72;;;12.30;88.40;;;;;;5085728;28;20115;-68
2023/03/21 10:19:14;;;;;;;7.70;3.50;;;12.30;88.40;;;;;;5082023;28;20024;-68
2023/03/21 10:21:44;;;;;;;6.30;3.20;;;12.40;88.30;;;;;;5086846;28;20032;-67
2023/03/21 10:24:14;;;;;;;8.25;3.25;;;12.40;88.00;;;;;;5085005;28;20028;-67
2023/03/21 10:26:41;;;;;;;6.68;3.13;;;12.50;87.90;;;;;;5080554;28;20032;-69
2023/03/21 10:29:11;;;;;;;6.20;2.97;;;12.50;87.80;;;;;;5078557;28;20150;-68
2023/03/21 10:31:40;;;;;;;12.30;3.70;;;12.50;87.60;;;;;;5082643;28;20038;-68
2023/03/21 10:34:36;;;;;;;;;;;12.60;87.50;;;;;;5085031;28;20024;-68
2023/03/21 10:37:05;;;;;;;6.50;3.28;;;12.70;87.40;;;;;;5081348;28;19915;-68
2023/03/21 10:39:44;;;;;;;7.95;3.60;;;12.70;87.10;;;;;;5082081;28;20021;-68
2023/03/21 10:42:36;;;;;;;6.70;3.25;;;12.80;86.90;;;;;;5082905;28;20024;-67
2023/03/21 10:45:12;;;;;;;6.43;3.85;;;12.70;86.70;;;;;;5082635;28;20036;-67
2023/03/21 10:47:38;;;;;;;13.18;3.88;;;12.80;86.80;;;;;;5087726;28;20028;-68
2023/03/21 10:50:06;;;;;;;6.20;3.50;;;12.80;86.50;;;;;;5086666;28;20035;-66
2023/03/21 10:52:33;;;;;;;4.60;3.10;;;12.80;86.50;;;;;;5091291;28;20020;-67
2023/03/21 10:55:20;;;;;;;7.22;3.78;;;12.80;86.40;;;;;;5089194;28;20032;-67
2023/03/21 10:57:46;;;;;;;6.10;3.35;;;12.90;86.30;;;;;;5093644;28;20020;-66
2023/03/21 11:00:26;;;;;;;9.10;3.38;;;12.90;86.20;;;;;;5087539;28;20020;-67
2023/03/21 11:02:53;;;;;;;5.78;3.15;;;12.90;86.10;;;;;;5083863;28;20052;-69
2023/03/21 11:05:21;;;;;;;9.02;4.53;;;13.00;86.00;;;;;;5082955;28;20016;-68
2023/03/21 11:07:56;;;;;;;9.77;4.10;;;13.10;86.00;;;;;;5086302;28;20051;-67
2023/03/21 11:10:34;;;;;;;10.40;4.32;;;13.10;85.50;;;;;;5091483;28;20055;-70
2023/03/21 11:13:26;;;;;;;6.57;2.88;;;13.30;85.50;;;;;;5091459;27;20504;-67
2023/03/21 11:15:54;;;;;;;10.07;4.03;;;13.40;85.20;;;;;;5090286;28;20020;-67
2023/03/21 11:18:22;;;;;;;8.02;3.47;;;13.40;84.90;;;;;;5083117;28;20081;-68
2023/03/21 11:20:55;;;;;;;6.22;3.03;;;13.50;84.90;;;;;;5080862;28;20028;-67
2023/03/21 11:23:23;;;;;;;;;;;13.60;85.30;;;;;;5087919;28;20130;-68
2023/03/21 11:25:50;;;;;;;6.45;3.13;;;13.60;84.60;;;;;;5090078;28;19974;-67
2023/03/21 11:28:20;;;;;;;4.70;3.22;;;13.60;84.40;;;;;;5090864;28;20457;-68
2023/03/21 11:31:05;;;;;;;8.80;3.70;;;13.70;84.40;;;;;;5088846;28;20016;-66
2023/03/21 11:33:58;;;;;;;6.25;3.67;;;13.60;84.10;;;;;;5088157;28;20430;-68
2023/03/21 11:36:32;;;;;;;6.85;3.53;;;13.50;84.00;;;;;;5080795;28;20080;-71
2023/03/21 11:39:11;;;;;;;9.63;3.53;;;13.50;83.80;;;;;;5086330;28;20028;-69
2023/03/21 11:41:39;;;;;;;8.68;4.22;;;13.60;83.80;;;;;;5081754;28;20020;-67
2023/03/21 11:44:05;;;;;;;7.55;3.25;;;13.50;83.60;;;;;;5085908;28;20040;-70
2023/03/21 11:46:38;;;;;;;6.28;3.00;;;13.50;83.80;;;;;;5084465;28;20081;-69
2023/03/21 11:49:04;;;;;;;8.25;3.13;;;13.60;83.90;;;;;;5083439;28;20035;-66
2023/03/21 11:51:45;;;;;;;6.45;3.08;;;13.60;83.70;;;;;;5089056;28;20035;-65
2023/03/21 11:54:11;;;;;;;6.72;3.53;;;13.70;83.60;;;;;;5083350;28;20111;-71
2023/03/21 11:56:46;;;;;;;5.93;3.60;;;13.70;83.40;;;;;;5081873;28;20139;-66
2023/03/21 11:59:41;;;;;;;7.03;3.70;;;13.70;83.30;;;;;;5085927;28;20020;-66
2023/03/21 12:02:13;;;;;;;6.45;3.78;;;13.80;83.00;;;;;;5082210;28;20041;-70
2023/03/21 12:04:52;;;;;;;7.13;4.03;;;13.70;82.70;;;;;;5083807;28;20028;-67
2023/03/21 12:07:38;;;;;;;6.40;3.50;;;13.70;82.50;;;;;;5084182;28;20059;-68
2023/03/21 12:10:22;;;;;;;7.40;3.35;;;13.80;82.70;;;;;;5084790;28;20114;-66
2023/03/21 12:13:22;;;;;;;5.88;3.47;;;13.80;82.50;;;;;;5082506;28;20517;-68
2023/03/21 12:16:06;;;;;;;6.32;2.88;;;13.80;82.40;;;;;;5082988;28;20048;-67
2023/03/21 12:19:09;;;;;;;9.38;3.40;;;13.90;82.50;;;;;;5088082;28;20039;-66
2023/03/21 12:22:16;;;;;;;9.02;4.40;;;13.90;82.20;;;;;;5093091;28;20034;-70
2023/03/21 12:25:08;;;;;;;6.85;3.30;;;13.90;81.60;;;;;;5088779;28;20027;-69
2023/03/21 12:27:58;;;;;;;7.40;3.80;;;13.90;81.70;;;;;;5079920;28;20120;-67
2023/03/21 12:30:55;;;;;;;7.10;4.15;;;13.90;81.70;;;;;;5086215;28;20091;-68
2023/03/21 12:33:58;;;;;;;9.07;4.25;;;13.80;81.10;;;;;;5084323;28;20048;-68
2023/03/21 12:36:58;;;;;;;6.15;3.15;;;13.80;81.20;;;;;;5084550;28;20020;-66
2023/03/21 12:39:31;;;;;;;5.85;2.55;;;13.90;81.50;;;;;;5088054;28;20070;-69
2023/03/21 12:42:33;;;;;;;6.65;2.88;;;13.90;81.50;;;;;;5086455;28;20031;-68
2023/03/21 12:45:10;;;;;;;6.30;3.15;;;14.00;81.40;;;;;;5083821;28;20063;-67
2023/03/21 12:47:39;;;;;;;5.93;2.97;;;13.90;81.30;;;;;;5090222;28;20024;-67
2023/03/21 12:50:18;;;;;;;7.15;3.58;;;13.90;81.30;;;;;;5087485;28;20031;-65
2023/03/21 12:52:48;;;;;;;7.63;2.92;;;13.90;80.80;;;;;;5086876;28;20028;-68
2023/03/21 12:55:19;;;;;;;5.03;2.88;;;13.80;80.90;;;;;;5090801;28;20015;-67
2023/03/21 12:57:49;;;;;;;4.43;2.22;;;13.80;81.20;;;;;;5084850;28;20107;-67
2023/03/21 13:00:25;;;;;;;5.35;2.50;;;14.00;81.20;;;;;;5091556;28;20024;-66
2023/03/21 13:03:01;;;;;;;8.95;3.28;;;14.10;81.00;;;;;;5083972;28;20029;-67